createdAt,value
2022-10-29T00:00:51.958Z,16.60
2022-10-29T00:03:20.784Z,18.13
2022-10-29T00:05:59.528Z,14.75
2022-10-29T00:08:28.548Z,18.45
2022-10-29T00:11:05.330Z,14.38
2022-10-29T00:13:33.161Z,14.32
2022-10-29T00:16:01.004Z,15.87
2022-10-29T00:18:31.028Z,14.05
2022-10-29T00:21:02.551Z,12.77
2022-10-29T00:23:30.409Z,17.23
2022-10-29T00:26:00.461Z,16.83
2022-10-29T00:28:29.069Z,17.42
2022-10-29T00:30:57.059Z,18.95
2022-10-29T00:33:25.003Z,19.50
2022-10-29T00:35:56.761Z,20.52
2022-10-29T00:38:24.808Z,22.75
2022-10-29T00:40:52.799Z,12.63
2022-10-29T00:43:24.908Z,15.93
2022-10-29T00:45:55.948Z,15.05
2022-10-29T00:48:25.516Z,18.10
2022-10-29T00:50:54.411Z,13.55
2022-10-29T00:53:26.750Z,14.68
2022-10-29T00:55:54.597Z,15.50
2022-10-29T00:58:23.970Z,15.82
2022-10-29T01:00:52.023Z,13.43
2022-10-29T01:03:19.889Z,13.13
2022-10-29T01:05:49.414Z,13.43
2022-10-29T01:08:17.870Z,18.13
2022-10-29T01:10:57.496Z,16.83
2022-10-29T01:13:42.363Z,14.00
2022-10-29T01:16:19.153Z,16.40
2022-10-29T01:18:51.028Z,12.27
2022-10-29T01:21:42.578Z,9.45
2022-10-29T01:24:48.187Z,10.20
2022-10-29T01:27:45.680Z,11.75
2022-10-29T01:30:25.433Z,13.45
2022-10-29T01:33:04.212Z,11.20
2022-10-29T01:35:43.971Z,10.25
2022-10-29T01:38:20.670Z,10.95
2022-10-29T01:40:56.336Z,8.50
2022-10-29T01:43:29.214Z,7.85
2022-10-29T01:46:02.669Z,9.32
2022-10-29T01:48:35.862Z,11.70
2022-10-29T01:51:10.124Z,8.13
2022-10-29T01:53:39.118Z,12.98
2022-10-29T01:56:07.510Z,6.97
2022-10-29T01:58:37.900Z,11.10
2022-10-29T02:01:15.363Z,7.23
2022-10-29T02:03:54.981Z,8.98
2022-10-29T02:06:31.170Z,9.07
2022-10-29T02:09:06.061Z,8.25
2022-10-29T02:11:42.644Z,9.15
2022-10-29T02:14:16.349Z,9.18
2022-10-29T02:16:45.096Z,8.75
2022-10-29T02:19:14.305Z,7.57
2022-10-29T02:21:44.176Z,10.55
2022-10-29T02:24:12.351Z,10.77
2022-10-29T02:26:40.154Z,11.98
2022-10-29T02:29:07.962Z,11.13
2022-10-29T02:31:36.257Z,13.05
2022-10-29T02:34:04.112Z,10.40
2022-10-29T02:36:33.269Z,11.52
2022-10-29T02:39:01.111Z,9.15
2022-10-29T02:41:29.058Z,11.27
2022-10-29T02:43:56.929Z,11.45
2022-10-29T02:46:25.372Z,10.85
2022-10-29T02:48:53.233Z,8.45
2022-10-29T02:51:21.030Z,9.40
2022-10-29T02:53:50.232Z,9.48
2022-10-29T02:56:18.065Z,9.75
2022-10-29T02:58:46.011Z,8.25
2022-10-29T03:01:13.893Z,7.22
2022-10-29T03:03:41.731Z,7.72
2022-10-29T03:06:13.744Z,11.68
2022-10-29T03:08:41.632Z,8.57
2022-10-29T03:11:11.188Z,7.38
2022-10-29T03:13:39.653Z,7.65
2022-10-29T03:16:07.594Z,8.30
2022-10-29T03:18:37.245Z,8.93
2022-10-29T03:21:05.541Z,6.38
2022-10-29T03:23:33.353Z,5.20
2022-10-29T03:26:01.327Z,6.28
2022-10-29T03:28:31.022Z,6.25
2022-10-29T03:30:59.177Z,6.30
2022-10-29T03:33:27.499Z,5.30
2022-10-29T03:35:59.023Z,7.43
2022-10-29T03:38:27.595Z,8.02
2022-10-29T03:40:55.556Z,6.78
2022-10-29T03:43:23.404Z,6.00
2022-10-29T03:45:53.407Z,5.70
2022-10-29T03:48:21.685Z,5.10
2022-10-29T03:50:56.189Z,5.30
2022-10-29T03:53:24.799Z,6.28
2022-10-29T03:55:52.886Z,8.03
2022-10-29T03:58:21.396Z,7.03
2022-10-29T04:00:56.720Z,7.38
2022-10-29T04:03:24.942Z,6.72
2022-10-29T04:05:52.797Z,7.75
2022-10-29T04:08:20.613Z,7.40
2022-10-29T04:10:49.677Z,7.13
2022-10-29T04:13:18.227Z,9.25
2022-10-29T04:15:46.644Z,9.63
2022-10-29T04:18:15.913Z,7.72
2022-10-29T04:22:22.922Z,9.25
2022-10-29T04:28:17.614Z,7.00
2022-10-29T04:29:07.341Z,7.50
2022-10-29T04:31:35.141Z,7.70
2022-10-29T04:34:04.448Z,7.95
2022-10-29T04:36:32.257Z,5.40
2022-10-29T04:39:00.103Z,6.93
2022-10-29T04:41:27.985Z,6.63
2022-10-29T04:43:55.836Z,8.43
2022-10-29T04:46:23.700Z,6.22
2022-10-29T04:48:52.064Z,6.95
2022-10-29T04:51:22.678Z,7.28
2022-10-29T04:53:50.772Z,6.53
2022-10-29T04:56:18.695Z,9.57
2022-10-29T04:58:46.609Z,11.00
2022-10-29T05:01:14.687Z,9.68
2022-10-29T05:03:42.606Z,7.60
2022-10-29T05:06:10.469Z,9.05
2022-10-29T05:08:39.612Z,9.63
2022-10-29T05:11:08.000Z,9.25
2022-10-29T05:13:35.990Z,11.48
2022-10-29T05:16:03.906Z,8.53
2022-10-29T05:18:31.753Z,8.35
2022-10-29T05:20:59.586Z,10.30
2022-10-29T05:23:27.463Z,7.95
2022-10-29T05:25:57.025Z,10.20
2022-10-29T05:28:25.295Z,10.95
2022-10-29T05:30:54.373Z,11.20
2022-10-29T05:33:24.516Z,11.30
2022-10-29T05:35:52.537Z,13.27
2022-10-29T05:38:20.636Z,8.43
2022-10-29T05:40:48.439Z,13.57
2022-10-29T05:43:20.305Z,7.75
2022-10-29T05:45:48.131Z,9.23
2022-10-29T05:48:16.074Z,10.90
2022-10-29T05:50:44.053Z,12.10
2022-10-29T05:53:14.049Z,13.60
2022-10-29T05:55:42.777Z,12.40
2022-10-29T05:58:13.238Z,10.27
2022-10-29T06:00:44.909Z,10.43
2022-10-29T06:03:14.766Z,8.57
2022-10-29T06:05:42.941Z,10.07
2022-10-29T06:08:11.155Z,12.52
2022-10-29T06:10:39.016Z,14.52
2022-10-29T06:13:11.892Z,10.60
2022-10-29T06:15:39.852Z,11.67
2022-10-29T06:18:09.165Z,11.10
2022-10-29T06:20:38.143Z,11.97
2022-10-29T06:23:06.444Z,12.68
2022-10-29T06:25:34.443Z,10.67
2022-10-29T06:28:02.921Z,16.50
2022-10-29T06:30:30.806Z,13.95
2022-10-29T06:32:58.908Z,15.23
2022-10-29T06:35:28.541Z,16.23
2022-10-29T06:37:56.773Z,12.75
2022-10-29T06:40:24.843Z,13.65
2022-10-29T06:42:59.754Z,13.75
2022-10-29T06:45:28.034Z,13.30
2022-10-29T06:47:56.595Z,14.48
2022-10-29T06:50:24.779Z,17.85
2022-10-29T06:52:59.056Z,13.85
2022-10-29T06:55:28.016Z,14.17
2022-10-29T06:58:00.627Z,14.18
2022-10-29T07:00:28.776Z,19.80
2022-10-29T07:02:57.359Z,16.98
2022-10-29T07:05:26.112Z,20.02
2022-10-29T07:07:58.224Z,19.30
2022-10-29T07:10:27.812Z,17.00
2022-10-29T07:12:55.827Z,17.27
2022-10-29T07:15:27.349Z,18.15
2022-10-29T07:17:57.659Z,23.67
2022-10-29T07:20:26.161Z,22.27
2022-10-29T07:22:54.004Z,23.00
2022-10-29T07:25:23.200Z,22.15
2022-10-29T07:27:51.436Z,19.25
2022-10-29T07:30:19.475Z,21.40
2022-10-29T07:32:47.421Z,21.42
2022-10-29T07:35:15.458Z,25.40
2022-10-29T07:37:43.274Z,25.05
2022-10-29T07:40:12.189Z,24.03
2022-10-29T07:42:41.383Z,24.05
2022-10-29T07:45:10.074Z,24.48
2022-10-29T07:47:38.031Z,27.13
2022-10-29T07:50:06.481Z,23.37
2022-10-29T07:52:34.340Z,25.83
2022-10-29T07:55:02.810Z,27.57
2022-10-29T07:57:30.683Z,29.40
2022-10-29T07:59:59.862Z,26.50
2022-10-29T08:02:27.673Z,24.37
2022-10-29T08:04:55.518Z,24.48
2022-10-29T08:07:23.331Z,24.02
2022-10-29T08:09:51.153Z,27.13
2022-10-29T08:12:18.974Z,23.27
2022-10-29T08:14:46.784Z,22.67
2022-10-29T08:17:15.941Z,26.20
2022-10-29T08:19:43.776Z,26.73
2022-10-29T08:22:11.586Z,22.50
2022-10-29T08:24:39.401Z,22.95
2022-10-29T08:27:07.227Z,22.60
2022-10-29T08:29:35.080Z,24.15
2022-10-29T08:32:03.022Z,21.95
2022-10-29T08:34:32.247Z,26.27
2022-10-29T08:37:00.089Z,22.98
2022-10-29T08:39:27.885Z,27.77
2022-10-29T08:42:04.904Z,21.00
2022-10-29T08:45:07.432Z,25.70
2022-10-29T08:47:45.520Z,22.23
2022-10-29T08:50:21.640Z,27.63
2022-10-29T08:52:58.863Z,26.40
2022-10-29T08:55:38.863Z,25.88
2022-10-29T08:58:19.163Z,27.50
2022-10-29T09:00:49.817Z,22.30
2022-10-29T09:03:17.703Z,26.58
2022-10-29T09:05:58.322Z,28.48
2022-10-29T09:08:37.885Z,22.73
2022-10-29T09:11:26.301Z,23.55
2022-10-29T09:14:04.437Z,27.10
2022-10-29T09:16:43.975Z,31.63
2022-10-29T09:19:27.966Z,23.58
2022-10-29T09:22:06.414Z,27.33
2022-10-29T09:24:41.263Z,24.88
2022-10-29T09:27:16.192Z,27.02
2022-10-29T09:30:02.167Z,22.73
2022-10-29T09:32:36.870Z,25.90
2022-10-29T09:35:14.696Z,25.52
2022-10-29T09:37:49.770Z,25.00
2022-10-29T09:40:32.032Z,25.70
2022-10-29T09:43:01.319Z,29.00
2022-10-29T09:45:37.322Z,27.08
2022-10-29T09:48:12.325Z,28.80
2022-10-29T09:50:49.313Z,29.17
2022-10-29T09:53:19.528Z,26.90
2022-10-29T09:55:53.522Z,25.88
2022-10-29T09:58:22.869Z,26.58
2022-10-29T10:00:51.165Z,29.65
2022-10-29T10:03:24.441Z,25.55
2022-10-29T10:06:00.760Z,25.23
2022-10-29T10:08:30.500Z,24.60
2022-10-29T10:11:00.341Z,27.30
2022-10-29T10:13:30.360Z,27.98
2022-10-29T10:16:00.257Z,23.93
2022-10-29T10:18:39.217Z,23.20
2022-10-29T10:21:10.216Z,24.90
2022-10-29T10:23:45.212Z,24.27
2022-10-29T10:26:34.267Z,25.00
2022-10-29T10:29:13.885Z,27.55
2022-10-29T10:31:42.999Z,24.80
2022-10-29T10:34:17.057Z,27.33
2022-10-29T10:36:49.593Z,20.45
2022-10-29T10:39:29.635Z,23.55
2022-10-29T10:41:59.044Z,25.70
2022-10-29T10:44:28.585Z,24.80
2022-10-29T10:46:59.003Z,21.10
2022-10-29T10:49:33.634Z,23.63
2022-10-29T10:52:04.994Z,27.70
2022-10-29T10:54:37.788Z,24.73
2022-10-29T10:57:20.495Z,22.27
2022-10-29T10:59:56.661Z,20.50
2022-10-29T11:02:31.502Z,20.87
2022-10-29T11:05:05.125Z,17.95
2022-10-29T11:07:39.597Z,22.77
2022-10-29T11:10:13.835Z,20.08
2022-10-29T11:12:45.351Z,21.25
2022-10-29T11:15:19.179Z,23.48
2022-10-29T11:17:54.712Z,20.63
2022-10-29T11:20:26.651Z,20.60
2022-10-29T11:23:03.456Z,20.80
2022-10-29T11:25:40.857Z,23.70
2022-10-29T11:28:19.960Z,21.52
2022-10-29T11:30:52.826Z,18.75
2022-10-29T11:33:27.644Z,18.40
2022-10-29T11:36:01.870Z,23.27
2022-10-29T11:38:35.001Z,20.45
2022-10-29T11:41:12.386Z,22.75
2022-10-29T11:43:40.516Z,23.45
2022-10-29T11:46:16.101Z,19.55
2022-10-29T11:48:55.771Z,21.63
2022-10-29T11:51:34.175Z,21.90
2022-10-29T11:54:05.828Z,16.60
2022-10-29T11:56:49.553Z,21.92
2022-10-29T11:59:30.704Z,19.88
2022-10-29T12:02:09.770Z,19.50
2022-10-29T12:04:42.233Z,18.40
2022-10-29T12:07:22.907Z,19.00
2022-10-29T12:10:11.718Z,18.58
2022-10-29T12:12:49.844Z,18.52
2022-10-29T12:15:23.627Z,16.02
2022-10-29T12:18:01.888Z,15.07
2022-10-29T12:20:41.992Z,21.42
2022-10-29T12:23:25.297Z,14.55
2022-10-29T12:26:03.156Z,12.55
2022-10-29T12:28:44.660Z,21.30
2022-10-29T12:31:25.287Z,15.55
2022-10-29T12:34:00.413Z,15.30
2022-10-29T12:36:35.139Z,19.15
2022-10-29T12:39:03.893Z,15.55
2022-10-29T12:41:37.098Z,16.30
2022-10-29T12:44:11.497Z,15.48
2022-10-29T12:46:41.390Z,19.65
2022-10-29T12:49:11.838Z,15.40
2022-10-29T12:51:44.152Z,17.40
2022-10-29T12:54:24.061Z,18.40
2022-10-29T12:56:52.248Z,15.05
2022-10-29T12:59:30.359Z,18.13
2022-10-29T13:02:18.914Z,19.10
2022-10-29T13:05:02.086Z,13.30
2022-10-29T13:07:30.291Z,12.07
2022-10-29T13:10:13.327Z,11.80
2022-10-29T13:13:01.674Z,13.68
2022-10-29T13:15:32.372Z,18.17
2022-10-29T13:18:02.853Z,19.30
2022-10-29T13:20:37.549Z,14.17
2022-10-29T13:23:09.736Z,14.60
2022-10-29T13:25:44.086Z,18.48
2022-10-29T13:28:30.972Z,12.52
2022-10-29T13:31:14.088Z,15.70
2022-10-29T13:33:52.769Z,14.45
2022-10-29T13:36:38.471Z,21.10
2022-10-29T13:39:20.555Z,15.57
2022-10-29T13:41:54.298Z,16.75
2022-10-29T13:44:24.305Z,15.95
2022-10-29T13:46:56.975Z,13.57
2022-10-29T13:49:31.028Z,16.58
2022-10-29T13:52:02.254Z,13.70
2022-10-29T13:54:38.756Z,17.75
2022-10-29T13:57:15.488Z,15.00
2022-10-29T13:59:46.770Z,14.45
2022-10-29T14:02:47.004Z,15.88
2022-10-29T14:05:21.549Z,13.43
2022-10-29T14:07:55.868Z,16.02
2022-10-29T14:10:26.307Z,16.08
2022-10-29T14:13:00.181Z,14.65
2022-10-29T14:15:28.333Z,13.97
2022-10-29T14:17:56.138Z,12.10
2022-10-29T14:20:27.645Z,16.40
2022-10-29T14:22:56.065Z,14.15
2022-10-29T14:25:30.021Z,14.07
2022-10-29T14:28:15.856Z,16.37
2022-10-29T14:30:43.978Z,17.27
2022-10-29T14:33:25.045Z,12.60
2022-10-29T14:35:57.056Z,13.82
2022-10-29T14:38:33.372Z,16.90
2022-10-29T14:41:01.312Z,14.20
2022-10-29T14:43:30.083Z,14.57
2022-10-29T14:46:10.303Z,12.25
2022-10-29T14:48:41.636Z,16.45
2022-10-29T14:51:20.034Z,11.07
2022-10-29T14:53:55.691Z,16.60
2022-10-29T14:56:32.132Z,12.35
2022-10-29T14:59:00.979Z,19.13
2022-10-29T15:01:29.015Z,18.27
2022-10-29T15:04:00.597Z,13.45
2022-10-29T15:06:30.566Z,14.48
2022-10-29T15:09:00.575Z,14.37
2022-10-29T15:11:39.174Z,11.50
2022-10-29T15:16:59.182Z,14.95
2022-10-29T15:19:27.513Z,15.05
2022-10-29T15:21:56.754Z,17.55
2022-10-29T15:24:25.898Z,14.10
2022-10-29T15:26:56.602Z,17.95
2022-10-29T15:29:32.236Z,17.45
2022-10-29T15:32:02.133Z,23.27
2022-10-29T15:34:32.596Z,17.50
2022-10-29T15:37:22.364Z,16.40
2022-10-29T15:40:06.788Z,19.75
2022-10-29T15:42:36.424Z,18.85
2022-10-29T15:45:15.184Z,18.53
2022-10-29T15:47:44.928Z,17.85
2022-10-29T15:50:14.785Z,13.57
2022-10-29T15:52:45.497Z,16.02
2022-10-29T15:55:25.125Z,14.48
2022-10-29T15:57:55.861Z,18.48
2022-10-29T16:00:24.640Z,14.25
2022-10-29T16:02:52.809Z,15.68
2022-10-29T16:05:20.656Z,20.95
2022-10-29T16:07:49.929Z,15.57
2022-10-29T16:10:20.472Z,15.93
2022-10-29T16:12:48.766Z,18.63
2022-10-29T16:15:19.307Z,17.83
2022-10-29T16:17:47.839Z,11.88
2022-10-29T16:20:17.897Z,14.35
2022-10-29T16:22:47.477Z,20.30
2022-10-29T16:25:25.832Z,15.98
2022-10-29T16:27:54.166Z,19.37
2022-10-29T16:30:24.072Z,18.77
2022-10-29T16:32:52.825Z,10.95
2022-10-29T16:35:22.746Z,18.07
2022-10-29T16:37:52.284Z,14.52
2022-10-29T16:40:24.783Z,11.18
2022-10-29T16:42:54.855Z,13.20
2022-10-29T16:45:25.055Z,19.35
2022-10-29T16:47:53.255Z,14.02
2022-10-29T16:50:24.300Z,18.50
2022-10-29T16:52:58.295Z,13.38
2022-10-29T16:55:27.937Z,15.10
2022-10-29T16:57:56.224Z,15.60
2022-10-29T17:00:25.842Z,21.40
2022-10-29T17:02:54.037Z,15.60
2022-10-29T17:05:22.050Z,16.02
2022-10-29T17:07:49.892Z,16.00
2022-10-29T17:10:17.796Z,15.55
2022-10-29T17:12:47.176Z,15.75
2022-10-29T17:15:15.348Z,13.13
2022-10-29T17:17:45.581Z,15.50
2022-10-29T17:20:14.403Z,15.48
2022-10-29T17:22:42.387Z,14.98
2022-10-29T17:25:10.897Z,12.23
2022-10-29T17:27:39.549Z,16.95
2022-10-29T17:30:10.854Z,18.87
2022-10-29T17:32:38.830Z,17.00
2022-10-29T17:35:07.380Z,15.63
2022-10-29T17:37:35.257Z,11.33
2022-10-29T17:40:06.963Z,13.25
2022-10-29T17:42:36.190Z,16.58
2022-10-29T17:45:04.374Z,15.43
2022-10-29T17:47:33.978Z,12.95
2022-10-29T17:50:01.922Z,15.73
2022-10-29T17:52:29.779Z,16.23
2022-10-29T17:54:57.545Z,14.70
2022-10-29T17:57:25.481Z,19.35
2022-10-29T17:59:53.316Z,18.95
2022-10-29T18:02:21.295Z,15.23
2022-10-29T18:04:50.563Z,14.13
2022-10-29T18:07:18.408Z,17.63
2022-10-29T18:09:46.243Z,18.35
2022-10-29T18:12:14.041Z,20.27
2022-10-29T18:14:41.865Z,15.43
2022-10-29T18:17:09.704Z,14.63
2022-10-29T18:19:37.609Z,11.93
2022-10-29T18:22:06.793Z,14.45
2022-10-29T18:24:34.583Z,18.90
2022-10-29T18:27:02.410Z,14.85
2022-10-29T18:29:30.236Z,16.33
2022-10-29T18:31:58.968Z,13.10
2022-10-29T18:34:26.945Z,12.88
2022-10-29T18:36:54.773Z,10.10
2022-10-29T18:39:23.950Z,15.30
2022-10-29T18:41:51.785Z,14.77
2022-10-29T18:44:19.665Z,14.77
2022-10-29T18:46:47.513Z,13.98
2022-10-29T18:49:15.807Z,16.53
2022-10-29T18:51:43.691Z,16.15
2022-10-29T18:54:12.767Z,12.95
2022-10-29T18:56:42.432Z,18.42
2022-10-29T18:59:11.607Z,19.80
2022-10-29T19:01:39.731Z,16.75
2022-10-29T19:04:10.159Z,15.73
2022-10-29T19:06:38.502Z,16.67
2022-10-29T19:09:08.855Z,19.23
2022-10-29T19:11:37.096Z,11.77
2022-10-29T19:14:08.174Z,15.47
2022-10-29T19:16:36.311Z,18.67
2022-10-29T19:19:07.336Z,16.40
2022-10-29T19:21:36.378Z,19.17
2022-10-29T19:24:05.114Z,13.00
2022-10-29T19:26:34.845Z,22.40
2022-10-29T19:29:05.136Z,13.68
2022-10-29T19:31:36.283Z,16.92
2022-10-29T19:34:06.585Z,16.75
2022-10-29T19:36:35.435Z,16.65
2022-10-29T19:39:03.614Z,15.32
2022-10-29T19:41:31.773Z,10.70
2022-10-29T19:44:01.224Z,11.30
2022-10-29T19:46:29.670Z,18.75
2022-10-29T19:48:59.317Z,20.07
2022-10-29T19:51:27.268Z,18.83
2022-10-29T19:53:57.641Z,13.73
2022-10-29T19:56:25.442Z,17.50
2022-10-29T19:58:53.257Z,14.95
2022-10-29T20:01:21.177Z,12.50
2022-10-29T20:03:49.300Z,19.58
2022-10-29T20:06:18.567Z,19.08
2022-10-29T20:08:46.456Z,23.70
2022-10-29T20:11:14.290Z,36.10
2022-10-29T20:13:42.155Z,32.03
2022-10-29T20:16:11.275Z,28.75
2022-10-29T20:18:39.169Z,27.05
2022-10-29T20:21:08.111Z,21.60
2022-10-29T20:23:37.516Z,28.60
2022-10-29T20:26:05.636Z,26.15
2022-10-29T20:28:33.508Z,26.93
2022-10-29T20:31:29.944Z,32.10
2022-10-29T20:34:00.006Z,30.67
2022-10-29T20:36:30.448Z,31.65
2022-10-29T20:39:00.098Z,35.58
2022-10-29T20:41:29.212Z,30.05
2022-10-29T20:43:59.191Z,30.38
2022-10-29T20:46:27.865Z,34.78
2022-10-29T20:48:55.939Z,27.17
2022-10-29T20:51:24.395Z,29.15
2022-10-29T20:53:52.749Z,28.67
2022-10-29T20:56:23.362Z,27.17
2022-10-29T20:58:51.427Z,23.80
2022-10-29T21:01:20.864Z,24.90
2022-10-29T21:03:50.582Z,26.17
2022-10-29T21:06:19.107Z,28.10
2022-10-29T21:08:47.157Z,28.48
2022-10-29T21:11:16.246Z,31.50
2022-10-29T21:13:45.891Z,32.15
2022-10-29T21:16:17.717Z,32.55
2022-10-29T21:18:46.806Z,30.58
2022-10-29T21:21:15.134Z,33.55
2022-10-29T21:23:43.155Z,32.15
2022-10-29T21:26:12.984Z,30.80
2022-10-29T21:28:40.883Z,29.20
2022-10-29T21:31:10.148Z,37.70
2022-10-29T21:33:38.571Z,38.53
2022-10-29T21:36:06.670Z,37.67
2022-10-29T21:38:34.610Z,37.15
2022-10-29T21:41:03.015Z,38.40
2022-10-29T21:43:31.190Z,45.60
2022-10-29T21:45:59.369Z,33.95
2022-10-29T21:48:29.728Z,30.88
2022-10-29T21:51:02.747Z,26.50
2022-10-29T21:53:31.192Z,28.27
2022-10-29T21:56:00.329Z,26.20
2022-10-29T21:58:28.389Z,20.52
2022-10-29T22:01:04.370Z,18.37
2022-10-29T22:03:34.127Z,23.73
2022-10-29T22:06:03.485Z,23.83
2022-10-29T22:08:31.373Z,18.65
2022-10-29T22:10:59.844Z,17.88
2022-10-29T22:13:28.438Z,16.17
2022-10-29T22:15:56.583Z,17.45
2022-10-29T22:18:24.953Z,17.60
2022-10-29T22:21:03.670Z,20.25
2022-10-29T22:23:31.606Z,20.30
2022-10-29T22:25:59.587Z,15.23
2022-10-29T22:28:27.420Z,16.10
2022-10-29T22:30:59.610Z,14.85
2022-10-29T22:33:27.480Z,13.57
2022-10-29T22:35:56.783Z,15.70
2022-10-29T22:38:24.603Z,14.50
2022-10-29T22:40:52.395Z,17.15
2022-10-29T22:43:20.197Z,18.60
2022-10-29T22:45:48.048Z,13.52
2022-10-29T22:48:16.029Z,14.95
2022-10-29T22:50:43.829Z,15.63
2022-10-29T22:53:13.052Z,13.38
2022-10-29T22:55:40.873Z,13.00
2022-10-29T22:58:09.714Z,19.73
2022-10-29T23:00:37.573Z,19.37
2022-10-29T23:03:05.478Z,18.42
2022-10-29T23:05:33.457Z,19.63
2022-10-29T23:08:01.348Z,17.70
2022-10-29T23:10:30.612Z,20.50
2022-10-29T23:12:58.435Z,19.13
2022-10-29T23:15:26.265Z,21.17
2022-10-29T23:17:54.342Z,21.35
2022-10-29T23:20:22.304Z,18.27
2022-10-29T23:22:50.123Z,14.35
2022-10-29T23:25:17.985Z,21.42
2022-10-29T23:27:47.147Z,16.87
2022-10-29T23:30:15.261Z,16.43
2022-10-29T23:32:43.112Z,13.27
2022-10-29T23:35:10.964Z,15.50
2022-10-29T23:37:38.781Z,23.33
2022-10-29T23:40:07.737Z,16.17
2022-10-29T23:42:35.701Z,16.10
2022-10-29T23:45:07.662Z,17.42
2022-10-29T23:47:35.877Z,21.92
2022-10-29T23:50:03.743Z,17.57
2022-10-29T23:52:31.623Z,20.48
2022-10-29T23:54:59.439Z,18.25
2022-10-29T23:57:27.294Z,14.87
2022-10-29T23:59:55.096Z,17.05
